sensor_id;sensor_type;location;lat;lon;timestamp;P1;durP1;ratioP1;P2;durP2;ratioP2
3817;SDS011;1924;48.078;11.516;2023-03-01T00:00:00;21.60;;;0.70;;
3817;SDS011;1924;48.078;11.516;2023-03-01T00:02:28;21.73;;;0.70;;
3817;SDS011;1924;48.078;11.516;2023-03-01T00:04:58;21.70;;;0.77;;
3817;SDS011;1924;48.078;11.516;2023-03-01T00:07:24;21.80;;;0.70;;
3817;SDS011;1924;48.078;11.516;2023-03-01T00:09:52;21.70;;;0.70;;
3817;SDS011;1924;48.078;11.516;2023-03-01T00:12:19;21.60;;;0.70;;
3817;SDS011;1924;48.078;11.516;2023-03-01T00:14:46;21.80;;;0.70;;
3817;SDS011;1924;48.078;11.516;2023-03-01T00:17:13;21.73;;;0.70;;
3817;SDS011;1924;48.078;11.516;2023-03-01T00:19:39;21.70;;;0.70;;
3817;SDS011;1924;48.078;11.516;2023-03-01T00:22:06;21.60;;;0.70;;
3817;SDS011;1924;48.078;11.516;2023-03-01T00:24:33;21.80;;;0.70;;
3817;SDS011;1924;48.078;11.516;2023-03-01T00:27:01;21.80;;;0.80;;
3817;SDS011;1924;48.078;11.516;2023-03-01T00:29:28;21.83;;;0.80;;
3817;SDS011;1924;48.078;11.516;2023-03-01T00:31:54;21.63;;;0.70;;
3817;SDS011;1924;48.078;11.516;2023-03-01T00:34:21;21.80;;;0.70;;
3817;SDS011;1924;48.078;11.516;2023-03-01T00:36:48;21.80;;;0.70;;
3817;SDS011;1924;48.078;11.516;2023-03-01T00:39:14;21.80;;;0.80;;
3817;SDS011;1924;48.078;11.516;2023-03-01T00:41:41;21.60;;;0.70;;
3817;SDS011;1924;48.078;11.516;2023-03-01T00:44:10;21.70;;;0.70;;
3817;SDS011;1924;48.078;11.516;2023-03-01T00:46:37;21.50;;;0.70;;
3817;SDS011;1924;48.078;11.516;2023-03-01T00:49:04;21.60;;;0.70;;
3817;SDS011;1924;48.078;11.516;2023-03-01T00:51:31;21.80;;;0.80;;
3817;SDS011;1924;48.078;11.516;2023-03-01T00:53:58;21.80;;;0.70;;
3817;SDS011;1924;48.078;11.516;2023-03-01T00:56:26;21.80;;;0.70;;
3817;SDS011;1924;48.078;11.516;2023-03-01T00:58:54;21.67;;;0.70;;
3817;SDS011;1924;48.078;11.516;2023-03-01T01:01:23;21.70;;;0.77;;
3817;SDS011;1924;48.078;11.516;2023-03-01T01:03:53;21.70;;;0.80;;
3817;SDS011;1924;48.078;11.516;2023-03-01T01:06:22;21.70;;;0.70;;
3817;SDS011;1924;48.078;11.516;2023-03-01T01:08:50;21.60;;;0.70;;
3817;SDS011;1924;48.078;11.516;2023-03-01T01:11:18;21.80;;;0.80;;
3817;SDS011;1924;48.078;11.516;2023-03-01T01:13:46;21.67;;;0.70;;
3817;SDS011;1924;48.078;11.516;2023-03-01T01:16:14;21.70;;;0.80;;
3817;SDS011;1924;48.078;11.516;2023-03-01T01:18:43;21.63;;;0.77;;
3817;SDS011;1924;48.078;11.516;2023-03-01T01:21:10;21.70;;;0.70;;
3817;SDS011;1924;48.078;11.516;2023-03-01T01:23:38;21.40;;;0.80;;
3817;SDS011;1924;48.078;11.516;2023-03-01T01:26:06;21.57;;;0.70;;
3817;SDS011;1924;48.078;11.516;2023-03-01T01:28:36;21.60;;;0.70;;
3817;SDS011;1924;48.078;11.516;2023-03-01T01:31:03;21.50;;;0.80;;
3817;SDS011;1924;48.078;11.516;2023-03-01T01:33:30;21.77;;;0.80;;
3817;SDS011;1924;48.078;11.516;2023-03-01T01:35:58;21.63;;;0.70;;
3817;SDS011;1924;48.078;11.516;2023-03-01T01:38:25;21.67;;;0.70;;
3817;SDS011;1924;48.078;11.516;2023-03-01T01:40:52;21.50;;;0.70;;
3817;SDS011;1924;48.078;11.516;2023-03-01T01:43:20;21.50;;;0.70;;
3817;SDS011;1924;48.078;11.516;2023-03-01T01:45:49;21.73;;;0.80;;
3817;SDS011;1924;48.078;11.516;2023-03-01T01:48:17;21.67;;;0.70;;
3817;SDS011;1924;48.078;11.516;2023-03-01T01:50:46;21.67;;;0.70;;
3817;SDS011;1924;48.078;11.516;2023-03-01T01:53:20;21.60;;;0.70;;
3817;SDS011;1924;48.078;11.516;2023-03-01T01:55:49;21.70;;;0.80;;
3817;SDS011;1924;48.078;11.516;2023-03-01T01:58:22;21.50;;;0.70;;
3817;SDS011;1924;48.078;11.516;2023-03-01T02:00:51;21.60;;;0.70;;
3817;SDS011;1924;48.078;11.516;2023-03-01T02:03:20;21.57;;;0.70;;
3817;SDS011;1924;48.078;11.516;2023-03-01T02:05:55;21.70;;;0.70;;
3817;SDS011;1924;48.078;11.516;2023-03-01T02:08:31;21.60;;;0.70;;
3817;SDS011;1924;48.078;11.516;2023-03-01T02:11:01;21.63;;;0.80;;
3817;SDS011;1924;48.078;11.516;2023-03-01T02:13:29;21.77;;;0.70;;
3817;SDS011;1924;48.078;11.516;2023-03-01T02:15:56;21.60;;;0.70;;
3817;SDS011;1924;48.078;11.516;2023-03-01T02:18:23;21.80;;;0.70;;
3817;SDS011;1924;48.078;11.516;2023-03-01T02:20:55;21.70;;;0.70;;
3817;SDS011;1924;48.078;11.516;2023-03-01T02:23:32;21.60;;;0.80;;
3817;SDS011;1924;48.078;11.516;2023-03-01T02:26:02;21.60;;;0.70;;
3817;SDS011;1924;48.078;11.516;2023-03-01T02:28:35;21.77;;;0.80;;
3817;SDS011;1924;48.078;11.516;2023-03-01T02:31:03;21.60;;;0.77;;
3817;SDS011;1924;48.078;11.516;2023-03-01T02:33:49;21.73;;;0.80;;
3817;SDS011;1924;48.078;11.516;2023-03-01T02:36:17;21.70;;;0.80;;
3817;SDS011;1924;48.078;11.516;2023-03-01T02:38:46;21.60;;;0.80;;
3817;SDS011;1924;48.078;11.516;2023-03-01T02:41:15;21.67;;;0.70;;
3817;SDS011;1924;48.078;11.516;2023-03-01T02:43:45;21.57;;;0.80;;
3817;SDS011;1924;48.078;11.516;2023-03-01T02:46:13;21.60;;;0.77;;
3817;SDS011;1924;48.078;11.516;2023-03-01T02:48:43;21.60;;;0.70;;
3817;SDS011;1924;48.078;11.516;2023-03-01T02:51:14;21.60;;;0.70;;
3817;SDS011;1924;48.078;11.516;2023-03-01T02:53:53;21.67;;;0.80;;
3817;SDS011;1924;48.078;11.516;2023-03-01T02:56:27;21.67;;;0.80;;
3817;SDS011;1924;48.078;11.516;2023-03-01T02:58:56;21.70;;;0.73;;
3817;SDS011;1924;48.078;11.516;2023-03-01T03:01:26;21.73;;;0.70;;
3817;SDS011;1924;48.078;11.516;2023-03-01T03:04:01;21.70;;;0.70;;
3817;SDS011;1924;48.078;11.516;2023-03-01T05:02:28;21.43;;;0.73;;
3817;SDS011;1924;48.078;11.516;2023-03-01T05:04:55;21.40;;;0.80;;
3817;SDS011;1924;48.078;11.516;2023-03-01T05:07:22;21.50;;;0.70;;
3817;SDS011;1924;48.078;11.516;2023-03-01T05:09:49;21.40;;;0.77;;
3817;SDS011;1924;48.078;11.516;2023-03-01T05:12:16;21.43;;;0.80;;
3817;SDS011;1924;48.078;11.516;2023-03-01T05:14:43;21.37;;;0.70;;
3817;SDS011;1924;48.078;11.516;2023-03-01T05:17:09;21.17;;;0.70;;
3817;SDS011;1924;48.078;11.516;2023-03-01T05:19:37;21.37;;;0.80;;
3817;SDS011;1924;48.078;11.516;2023-03-01T05:22:07;21.40;;;0.80;;
3817;SDS011;1924;48.078;11.516;2023-03-01T05:24:34;21.30;;;0.70;;
3817;SDS011;1924;48.078;11.516;2023-03-01T05:27:02;21.40;;;0.80;;
3817;SDS011;1924;48.078;11.516;2023-03-01T05:29:30;21.50;;;0.80;;
3817;SDS011;1924;48.078;11.516;2023-03-01T05:32:00;21.53;;;0.70;;
3817;SDS011;1924;48.078;11.516;2023-03-01T05:34:28;21.40;;;0.77;;
3817;SDS011;1924;48.078;11.516;2023-03-01T05:36:57;21.40;;;0.80;;
3817;SDS011;1924;48.078;11.516;2023-03-01T05:39:25;21.47;;;0.70;;
3817;SDS011;1924;48.078;11.516;2023-03-01T05:41:54;21.40;;;0.73;;
3817;SDS011;1924;48.078;11.516;2023-03-01T05:44:22;21.40;;;0.70;;
3817;SDS011;1924;48.078;11.516;2023-03-01T05:46:49;21.37;;;0.70;;
3817;SDS011;1924;48.078;11.516;2023-03-01T05:49:16;21.30;;;0.77;;
3817;SDS011;1924;48.078;11.516;2023-03-01T05:51:43;21.33;;;0.80;;
3817;SDS011;1924;48.078;11.516;2023-03-01T05:54:15;21.40;;;0.80;;
3817;SDS011;1924;48.078;11.516;2023-03-01T05:56:42;21.47;;;0.80;;
3817;SDS011;1924;48.078;11.516;2023-03-01T05:59:10;21.40;;;0.77;;
3817;SDS011;1924;48.078;11.516;2023-03-01T06:01:37;21.37;;;0.80;;
3817;SDS011;1924;48.078;11.516;2023-03-01T06:04:04;21.30;;;0.73;;
3817;SDS011;1924;48.078;11.516;2023-03-01T06:06:33;21.40;;;0.80;;
3817;SDS011;1924;48.078;11.516;2023-03-01T06:09:00;21.37;;;0.80;;
3817;SDS011;1924;48.078;11.516;2023-03-01T06:11:28;21.10;;;0.70;;
3817;SDS011;1924;48.078;11.516;2023-03-01T06:13:55;21.37;;;0.70;;
3817;SDS011;1924;48.078;11.516;2023-03-01T06:16:21;21.20;;;0.70;;
3817;SDS011;1924;48.078;11.516;2023-03-01T06:18:48;21.47;;;0.80;;
3817;SDS011;1924;48.078;11.516;2023-03-01T06:21:15;21.10;;;0.70;;
3817;SDS011;1924;48.078;11.516;2023-03-01T06:23:42;21.30;;;0.80;;
3817;SDS011;1924;48.078;11.516;2023-03-01T06:26:08;21.27;;;0.70;;
3817;SDS011;1924;48.078;11.516;2023-03-01T06:28:37;21.20;;;0.80;;
3817;SDS011;1924;48.078;11.516;2023-03-01T06:31:04;21.23;;;0.73;;
3817;SDS011;1924;48.078;11.516;2023-03-01T06:33:33;21.40;;;0.77;;
3817;SDS011;1924;48.078;11.516;2023-03-01T06:36:01;21.20;;;0.70;;
3817;SDS011;1924;48.078;11.516;2023-03-01T06:38:27;21.20;;;0.70;;
3817;SDS011;1924;48.078;11.516;2023-03-01T06:40:54;21.10;;;0.80;;
3817;SDS011;1924;48.078;11.516;2023-03-01T06:43:22;21.23;;;0.70;;
3817;SDS011;1924;48.078;11.516;2023-03-01T06:45:50;21.20;;;0.80;;
3817;SDS011;1924;48.078;11.516;2023-03-01T06:48:17;21.30;;;0.70;;
3817;SDS011;1924;48.078;11.516;2023-03-01T06:50:44;21.33;;;0.70;;
3817;SDS011;1924;48.078;11.516;2023-03-01T06:53:11;21.20;;;0.70;;
3817;SDS011;1924;48.078;11.516;2023-03-01T06:55:37;21.23;;;0.80;;
3817;SDS011;1924;48.078;11.516;2023-03-01T06:58:04;21.20;;;0.70;;
3817;SDS011;1924;48.078;11.516;2023-03-01T07:00:31;21.20;;;0.70;;
3817;SDS011;1924;48.078;11.516;2023-03-01T07:03:00;21.20;;;0.70;;
3817;SDS011;1924;48.078;11.516;2023-03-01T07:05:27;21.23;;;0.70;;
3817;SDS011;1924;48.078;11.516;2023-03-01T07:07:54;21.17;;;0.70;;
3817;SDS011;1924;48.078;11.516;2023-03-01T07:10:21;21.10;;;0.80;;
3817;SDS011;1924;48.078;11.516;2023-03-01T07:12:48;21.00;;;0.70;;
3817;SDS011;1924;48.078;11.516;2023-03-01T07:15:15;21.27;;;0.70;;
3817;SDS011;1924;48.078;11.516;2023-03-01T07:17:42;21.10;;;0.80;;
3817;SDS011;1924;48.078;11.516;2023-03-01T07:20:11;21.17;;;0.80;;
3817;SDS011;1924;48.078;11.516;2023-03-01T07:22:39;21.20;;;0.80;;
3817;SDS011;1924;48.078;11.516;2023-03-01T07:25:07;21.23;;;0.70;;
3817;SDS011;1924;48.078;11.516;2023-03-01T07:27:34;21.10;;;0.70;;
3817;SDS011;1924;48.078;11.516;2023-03-01T07:30:01;21.00;;;0.77;;
3817;SDS011;1924;48.078;11.516;2023-03-01T07:32:28;21.20;;;0.80;;
3817;SDS011;1924;48.078;11.516;2023-03-01T07:34:55;21.00;;;0.70;;
3817;SDS011;1924;48.078;11.516;2023-03-01T07:37:23;21.17;;;0.80;;
3817;SDS011;1924;48.078;11.516;2023-03-01T07:39:50;21.07;;;0.70;;
3817;SDS011;1924;48.078;11.516;2023-03-01T07:42:16;21.00;;;0.70;;
3817;SDS011;1924;48.078;11.516;2023-03-01T07:44:43;21.13;;;0.80;;
3817;SDS011;1924;48.078;11.516;2023-03-01T07:47:10;21.03;;;0.70;;
3817;SDS011;1924;48.078;11.516;2023-03-01T07:49:36;21.03;;;0.70;;
3817;SDS011;1924;48.078;11.516;2023-03-01T07:52:03;21.10;;;0.70;;
3817;SDS011;1924;48.078;11.516;2023-03-01T07:54:31;21.10;;;0.80;;
3817;SDS011;1924;48.078;11.516;2023-03-01T07:56:58;21.17;;;0.70;;
3817;SDS011;1924;48.078;11.516;2023-03-01T07:59:25;21.10;;;0.70;;
3817;SDS011;1924;48.078;11.516;2023-03-01T08:01:54;21.17;;;0.70;;
3817;SDS011;1924;48.078;11.516;2023-03-01T08:04:20;21.30;;;0.70;;
3817;SDS011;1924;48.078;11.516;2023-03-01T08:06:49;21.20;;;0.70;;
3817;SDS011;1924;48.078;11.516;2023-03-01T08:09:16;21.07;;;0.70;;
3817;SDS011;1924;48.078;11.516;2023-03-01T08:11:44;21.10;;;0.70;;
3817;SDS011;1924;48.078;11.516;2023-03-01T08:14:11;21.17;;;0.80;;
3817;SDS011;1924;48.078;11.516;2023-03-01T08:16:37;21.03;;;0.70;;
3817;SDS011;1924;48.078;11.516;2023-03-01T08:19:04;21.00;;;0.70;;
3817;SDS011;1924;48.078;11.516;2023-03-01T08:21:31;21.20;;;0.70;;
3817;SDS011;1924;48.078;11.516;2023-03-01T08:23:59;21.10;;;0.73;;
3817;SDS011;1924;48.078;11.516;2023-03-01T08:26:26;21.17;;;0.70;;
3817;SDS011;1924;48.078;11.516;2023-03-01T08:28:54;21.20;;;0.70;;
3817;SDS011;1924;48.078;11.516;2023-03-01T08:31:22;21.07;;;0.80;;
3817;SDS011;1924;48.078;11.516;2023-03-01T08:33:51;21.10;;;0.70;;
3817;SDS011;1924;48.078;11.516;2023-03-01T08:36:21;21.17;;;0.70;;
3817;SDS011;1924;48.078;11.516;2023-03-01T08:38:48;21.17;;;0.70;;
3817;SDS011;1924;48.078;11.516;2023-03-01T08:41:15;21.10;;;0.80;;
3817;SDS011;1924;48.078;11.516;2023-03-01T08:43:41;21.10;;;0.70;;
3817;SDS011;1924;48.078;11.516;2023-03-01T08:46:09;21.20;;;0.70;;
3817;SDS011;1924;48.078;11.516;2023-03-01T08:48:37;21.17;;;0.77;;
3817;SDS011;1924;48.078;11.516;2023-03-01T08:51:07;21.13;;;0.70;;
3817;SDS011;1924;48.078;11.516;2023-03-01T08:53:34;21.10;;;0.70;;
3817;SDS011;1924;48.078;11.516;2023-03-01T08:56:01;21.20;;;0.70;;
3817;SDS011;1924;48.078;11.516;2023-03-01T08:58:28;21.23;;;0.80;;
3817;SDS011;1924;48.078;11.516;2023-03-01T09:00:55;21.10;;;0.70;;
3817;SDS011;1924;48.078;11.516;2023-03-01T09:03:25;21.17;;;0.70;;
3817;SDS011;1924;48.078;11.516;2023-03-01T09:05:52;21.20;;;0.70;;
3817;SDS011;1924;48.078;11.516;2023-03-01T09:08:19;21.27;;;0.70;;
3817;SDS011;1924;48.078;11.516;2023-03-01T09:10:46;21.10;;;0.70;;
3817;SDS011;1924;48.078;11.516;2023-03-01T09:13:13;21.10;;;0.70;;
3817;SDS011;1924;48.078;11.516;2023-03-01T09:15:39;21.23;;;0.70;;
3817;SDS011;1924;48.078;11.516;2023-03-01T09:18:06;21.30;;;0.70;;
3817;SDS011;1924;48.078;11.516;2023-03-01T09:20:34;21.20;;;0.70;;
3817;SDS011;1924;48.078;11.516;2023-03-01T09:23:01;21.23;;;0.70;;
3817;SDS011;1924;48.078;11.516;2023-03-01T09:25:28;21.17;;;0.70;;
3817;SDS011;1924;48.078;11.516;2023-03-01T09:27:54;21.23;;;0.70;;
3817;SDS011;1924;48.078;11.516;2023-03-01T09:30:21;21.10;;;0.80;;
3817;SDS011;1924;48.078;11.516;2023-03-01T09:32:49;21.23;;;0.70;;
3817;SDS011;1924;48.078;11.516;2023-03-01T09:35:16;21.13;;;0.80;;
3817;SDS011;1924;48.078;11.516;2023-03-01T09:37:46;21.13;;;0.70;;
3817;SDS011;1924;48.078;11.516;2023-03-01T09:40:15;21.17;;;0.70;;
3817;SDS011;1924;48.078;11.516;2023-03-01T09:42:46;21.10;;;0.70;;
3817;SDS011;1924;48.078;11.516;2023-03-01T09:45:21;21.23;;;0.80;;
3817;SDS011;1924;48.078;11.516;2023-03-01T09:47:52;21.27;;;0.80;;
3817;SDS011;1924;48.078;11.516;2023-03-01T09:50:31;21.20;;;0.70;;
3817;SDS011;1924;48.078;11.516;2023-03-01T09:53:03;21.30;;;0.70;;
3817;SDS011;1924;48.078;11.516;2023-03-01T09:55:37;21.40;;;0.70;;
3817;SDS011;1924;48.078;11.516;2023-03-01T09:58:14;21.30;;;0.70;;
3817;SDS011;1924;48.078;11.516;2023-03-01T10:01:15;21.43;;;0.70;;
3817;SDS011;1924;48.078;11.516;2023-03-01T10:04:00;21.37;;;0.77;;
3817;SDS011;1924;48.078;11.516;2023-03-01T10:06:39;21.40;;;0.77;;
3817;SDS011;1924;48.078;11.516;2023-03-01T10:09:19;21.40;;;0.80;;
3817;SDS011;1924;48.078;11.516;2023-03-01T10:11:47;21.37;;;0.70;;
3817;SDS011;1924;48.078;11.516;2023-03-01T10:14:29;21.40;;;0.70;;
3817;SDS011;1924;48.078;11.516;2023-03-01T10:17:00;21.37;;;0.70;;
3817;SDS011;1924;48.078;11.516;2023-03-01T10:19:31;21.33;;;0.70;;
3817;SDS011;1924;48.078;11.516;2023-03-01T10:22:03;21.40;;;0.70;;
3817;SDS011;1924;48.078;11.516;2023-03-01T10:24:35;21.40;;;0.70;;
3817;SDS011;1924;48.078;11.516;2023-03-01T10:27:04;21.27;;;0.70;;
3817;SDS011;1924;48.078;11.516;2023-03-01T10:29:44;21.37;;;0.80;;
3817;SDS011;1924;48.078;11.516;2023-03-01T10:32:15;21.50;;;0.77;;
3817;SDS011;1924;48.078;11.516;2023-03-01T10:34:43;21.50;;;0.70;;
3817;SDS011;1924;48.078;11.516;2023-03-01T10:37:11;21.50;;;0.80;;
3817;SDS011;1924;48.078;11.516;2023-03-01T10:42:31;21.60;;;0.70;;
3817;SDS011;1924;48.078;11.516;2023-03-01T10:45:09;21.77;;;0.77;;
3817;SDS011;1924;48.078;11.516;2023-03-01T10:47:42;21.90;;;0.70;;
3817;SDS011;1924;48.078;11.516;2023-03-01T10:50:17;21.80;;;0.70;;
3817;SDS011;1924;48.078;11.516;2023-03-01T10:52:55;21.80;;;0.70;;
3817;SDS011;1924;48.078;11.516;2023-03-01T10:55:27;21.87;;;0.70;;
3817;SDS011;1924;48.078;11.516;2023-03-01T10:58:07;21.87;;;0.80;;
3817;SDS011;1924;48.078;11.516;2023-03-01T11:00:46;21.90;;;0.70;;
3817;SDS011;1924;48.078;11.516;2023-03-01T11:03:16;22.10;;;0.70;;
3817;SDS011;1924;48.078;11.516;2023-03-01T11:05:57;22.10;;;0.70;;
3817;SDS011;1924;48.078;11.516;2023-03-01T11:08:31;22.00;;;0.70;;
3817;SDS011;1924;48.078;11.516;2023-03-01T11:11:06;22.20;;;0.70;;
3817;SDS011;1924;48.078;11.516;2023-03-01T11:13:46;22.40;;;0.70;;
3817;SDS011;1924;48.078;11.516;2023-03-01T11:16:31;22.60;;;0.80;;
3817;SDS011;1924;48.078;11.516;2023-03-01T11:19:04;22.70;;;0.77;;
3817;SDS011;1924;48.078;11.516;2023-03-01T11:21:41;22.70;;;0.80;;
3817;SDS011;1924;48.078;11.516;2023-03-01T11:24:14;22.60;;;0.80;;
3817;SDS011;1924;48.078;11.516;2023-03-01T11:26:45;22.80;;;0.80;;
3817;SDS011;1924;48.078;11.516;2023-03-01T11:29:17;22.80;;;0.73;;
3817;SDS011;1924;48.078;11.516;2023-03-01T11:31:54;22.67;;;0.80;;
3817;SDS011;1924;48.078;11.516;2023-03-01T11:34:28;22.80;;;0.80;;
3817;SDS011;1924;48.078;11.516;2023-03-01T11:37:07;22.80;;;0.80;;
3817;SDS011;1924;48.078;11.516;2023-03-01T11:39:43;22.90;;;0.70;;
3817;SDS011;1924;48.078;11.516;2023-03-01T11:42:19;22.80;;;0.77;;
3817;SDS011;1924;48.078;11.516;2023-03-01T11:44:52;22.80;;;0.70;;
3817;SDS011;1924;48.078;11.516;2023-03-01T11:47:27;22.77;;;0.80;;
3817;SDS011;1924;48.078;11.516;2023-03-01T11:50:07;22.83;;;0.80;;
3817;SDS011;1924;48.078;11.516;2023-03-01T11:52:45;22.70;;;0.80;;
3817;SDS011;1924;48.078;11.516;2023-03-01T11:55:28;23.13;;;0.80;;
3817;SDS011;1924;48.078;11.516;2023-03-01T11:58:11;23.30;;;0.80;;
3817;SDS011;1924;48.078;11.516;2023-03-01T12:00:53;23.40;;;0.80;;
3817;SDS011;1924;48.078;11.516;2023-03-01T12:03:31;23.80;;;0.80;;
3817;SDS011;1924;48.078;11.516;2023-03-01T12:06:12;23.90;;;0.80;;
3817;SDS011;1924;48.078;11.516;2023-03-01T12:08:52;23.90;;;0.80;;
3817;SDS011;1924;48.078;11.516;2023-03-01T12:11:59;23.50;;;0.80;;
3817;SDS011;1924;48.078;11.516;2023-03-01T12:14:40;23.67;;;0.80;;
3817;SDS011;1924;48.078;11.516;2023-03-01T12:17:18;23.70;;;0.80;;
3817;SDS011;1924;48.078;11.516;2023-03-01T12:20:02;24.00;;;0.80;;
3817;SDS011;1924;48.078;11.516;2023-03-01T12:22:41;23.90;;;0.80;;
3817;SDS011;1924;48.078;11.516;2023-03-01T12:25:22;24.00;;;0.80;;
3817;SDS011;1924;48.078;11.516;2023-03-01T12:28:01;24.10;;;0.80;;
3817;SDS011;1924;48.078;11.516;2023-03-01T12:30:48;24.10;;;0.80;;
3817;SDS011;1924;48.078;11.516;2023-03-01T12:33:28;24.03;;;0.80;;
3817;SDS011;1924;48.078;11.516;2023-03-01T12:36:11;23.80;;;0.80;;
3817;SDS011;1924;48.078;11.516;2023-03-01T12:38:52;23.60;;;0.80;;
3817;SDS011;1924;48.078;11.516;2023-03-01T12:41:32;24.00;;;0.80;;
3817;SDS011;1924;48.078;11.516;2023-03-01T12:44:24;24.00;;;0.80;;
3817;SDS011;1924;48.078;11.516;2023-03-01T12:47:14;24.10;;;0.80;;
3817;SDS011;1924;48.078;11.516;2023-03-01T12:49:49;24.10;;;0.80;;
3817;SDS011;1924;48.078;11.516;2023-03-01T12:52:22;24.20;;;0.80;;
3817;SDS011;1924;48.078;11.516;2023-03-01T12:54:54;24.40;;;0.80;;
3817;SDS011;1924;48.078;11.516;2023-03-01T12:57:26;24.50;;;0.80;;
3817;SDS011;1924;48.078;11.516;2023-03-01T13:00:05;24.50;;;0.80;;
3817;SDS011;1924;48.078;11.516;2023-03-01T13:02:47;24.70;;;0.80;;
3817;SDS011;1924;48.078;11.516;2023-03-01T13:05:26;24.70;;;0.80;;
3817;SDS011;1924;48.078;11.516;2023-03-01T13:08:01;24.80;;;0.80;;
3817;SDS011;1924;48.078;11.516;2023-03-01T13:10:38;24.80;;;0.80;;
3817;SDS011;1924;48.078;11.516;2023-03-01T13:13:13;24.80;;;0.80;;
3817;SDS011;1924;48.078;11.516;2023-03-01T13:15:44;24.70;;;0.80;;
3817;SDS011;1924;48.078;11.516;2023-03-01T13:18:28;24.90;;;0.80;;
3817;SDS011;1924;48.078;11.516;2023-03-01T13:20:57;24.50;;;0.80;;
3817;SDS011;1924;48.078;11.516;2023-03-01T13:23:26;24.60;;;0.80;;
3817;SDS011;1924;48.078;11.516;2023-03-01T13:26:06;24.77;;;0.80;;
3817;SDS011;1924;48.078;11.516;2023-03-01T13:28:50;24.60;;;0.80;;
3817;SDS011;1924;48.078;11.516;2023-03-01T13:45:56;24.50;;;0.80;;
3817;SDS011;1924;48.078;11.516;2023-03-01T13:48:25;24.60;;;0.80;;
3817;SDS011;1924;48.078;11.516;2023-03-01T13:50:57;24.60;;;0.80;;
3817;SDS011;1924;48.078;11.516;2023-03-01T13:53:28;24.80;;;0.80;;
3817;SDS011;1924;48.078;11.516;2023-03-01T13:56:00;24.77;;;0.80;;
3817;SDS011;1924;48.078;11.516;2023-03-01T13:58:29;24.50;;;0.80;;
3817;SDS011;1924;48.078;11.516;2023-03-01T14:00:59;24.77;;;0.80;;
3817;SDS011;1924;48.078;11.516;2023-03-01T14:03:27;24.77;;;0.80;;
3817;SDS011;1924;48.078;11.516;2023-03-01T14:06:01;24.50;;;0.80;;
3817;SDS011;1924;48.078;11.516;2023-03-01T14:08:31;24.67;;;0.80;;
3817;SDS011;1924;48.078;11.516;2023-03-01T14:11:13;24.60;;;0.80;;
3817;SDS011;1924;48.078;11.516;2023-03-01T14:14:13;24.60;;;0.80;;
3817;SDS011;1924;48.078;11.516;2023-03-01T14:16:55;24.50;;;0.80;;
3817;SDS011;1924;48.078;11.516;2023-03-01T14:19:33;24.50;;;0.80;;
3817;SDS011;1924;48.078;11.516;2023-03-01T14:22:03;24.50;;;0.80;;
3817;SDS011;1924;48.078;11.516;2023-03-01T14:24:40;24.50;;;0.80;;
3817;SDS011;1924;48.078;11.516;2023-03-01T14:27:14;24.50;;;0.80;;
3817;SDS011;1924;48.078;11.516;2023-03-01T14:29:42;24.40;;;0.80;;
3817;SDS011;1924;48.078;11.516;2023-03-01T14:32:10;24.20;;;0.80;;
3817;SDS011;1924;48.078;11.516;2023-03-01T14:34:42;24.30;;;0.80;;
3817;SDS011;1924;48.078;11.516;2023-03-01T14:37:14;24.30;;;0.80;;
3817;SDS011;1924;48.078;11.516;2023-03-01T14:39:46;24.43;;;0.80;;
3817;SDS011;1924;48.078;11.516;2023-03-01T14:42:13;24.20;;;0.80;;
3817;SDS011;1924;48.078;11.516;2023-03-01T14:44:41;24.20;;;0.80;;
3817;SDS011;1924;48.078;11.516;2023-03-01T14:47:10;24.30;;;0.80;;
3817;SDS011;1924;48.078;11.516;2023-03-01T14:49:40;24.20;;;0.80;;
3817;SDS011;1924;48.078;11.516;2023-03-01T14:52:16;24.30;;;0.80;;
3817;SDS011;1924;48.078;11.516;2023-03-01T14:54:47;24.17;;;0.80;;
3817;SDS011;1924;48.078;11.516;2023-03-01T14:57:16;24.10;;;0.80;;
3817;SDS011;1924;48.078;11.516;2023-03-01T14:59:46;24.10;;;0.80;;
3817;SDS011;1924;48.078;11.516;2023-03-01T15:02:16;24.10;;;0.80;;
3817;SDS011;1924;48.078;11.516;2023-03-01T15:04:45;24.10;;;0.80;;
3817;SDS011;1924;48.078;11.516;2023-03-01T15:07:15;24.20;;;0.80;;
3817;SDS011;1924;48.078;11.516;2023-03-01T15:09:43;24.10;;;0.80;;
3817;SDS011;1924;48.078;11.516;2023-03-01T15:15:19;24.00;;;0.80;;
3817;SDS011;1924;48.078;11.516;2023-03-01T15:18:13;24.07;;;0.80;;
3817;SDS011;1924;48.078;11.516;2023-03-01T15:20:44;24.10;;;0.80;;
3817;SDS011;1924;48.078;11.516;2023-03-01T15:23:16;24.10;;;0.80;;
3817;SDS011;1924;48.078;11.516;2023-03-01T15:25:48;24.10;;;0.80;;
3817;SDS011;1924;48.078;11.516;2023-03-01T15:28:21;24.10;;;0.80;;
3817;SDS011;1924;48.078;11.516;2023-03-01T15:30:57;24.00;;;0.80;;
3817;SDS011;1924;48.078;11.516;2023-03-01T15:33:34;24.17;;;0.80;;
3817;SDS011;1924;48.078;11.516;2023-03-01T15:36:03;24.10;;;0.80;;
3817;SDS011;1924;48.078;11.516;2023-03-01T15:38:56;24.17;;;0.80;;
3817;SDS011;1924;48.078;11.516;2023-03-01T15:41:27;24.00;;;0.80;;
3817;SDS011;1924;48.078;11.516;2023-03-01T15:43:56;24.10;;;0.80;;
3817;SDS011;1924;48.078;11.516;2023-03-01T15:46:25;24.07;;;0.80;;
3817;SDS011;1924;48.078;11.516;2023-03-01T15:48:55;24.10;;;0.80;;
3817;SDS011;1924;48.078;11.516;2023-03-01T15:51:27;23.90;;;0.80;;
3817;SDS011;1924;48.078;11.516;2023-03-01T15:53:57;23.90;;;0.80;;
3817;SDS011;1924;48.078;11.516;2023-03-01T15:56:27;23.90;;;0.70;;
3817;SDS011;1924;48.078;11.516;2023-03-01T15:58:57;23.90;;;0.80;;
3817;SDS011;1924;48.078;11.516;2023-03-01T16:01:24;24.07;;;0.77;;
3817;SDS011;1924;48.078;11.516;2023-03-01T16:03:51;23.70;;;0.80;;
3817;SDS011;1924;48.078;11.516;2023-03-01T16:06:18;23.90;;;0.80;;
3817;SDS011;1924;48.078;11.516;2023-03-01T16:08:45;24.03;;;0.70;;
3817;SDS011;1924;48.078;11.516;2023-03-01T16:11:13;23.90;;;0.80;;
3817;SDS011;1924;48.078;11.516;2023-03-01T16:13:43;23.90;;;0.80;;
3817;SDS011;1924;48.078;11.516;2023-03-01T16:16:11;24.00;;;0.80;;
3817;SDS011;1924;48.078;11.516;2023-03-01T16:18:41;23.87;;;0.80;;
3817;SDS011;1924;48.078;11.516;2023-03-01T16:21:13;23.97;;;0.80;;
3817;SDS011;1924;48.078;11.516;2023-03-01T16:23:41;23.90;;;0.70;;
3817;SDS011;1924;48.078;11.516;2023-03-01T16:26:09;24.00;;;0.80;;
3817;SDS011;1924;48.078;11.516;2023-03-01T16:28:36;23.80;;;0.70;;
3817;SDS011;1924;48.078;11.516;2023-03-01T16:31:04;23.80;;;0.80;;
3817;SDS011;1924;48.078;11.516;2023-03-01T16:33:30;23.80;;;0.70;;
3817;SDS011;1924;48.078;11.516;2023-03-01T16:35:58;23.93;;;0.80;;
3817;SDS011;1924;48.078;11.516;2023-03-01T16:38:27;23.80;;;0.80;;
3817;SDS011;1924;48.078;11.516;2023-03-01T16:40:54;23.70;;;0.80;;
3817;SDS011;1924;48.078;11.516;2023-03-01T16:43:21;23.70;;;0.80;;
3817;SDS011;1924;48.078;11.516;2023-03-01T16:45:47;23.80;;;0.80;;
3817;SDS011;1924;48.078;11.516;2023-03-01T16:48:15;23.80;;;0.80;;
3817;SDS011;1924;48.078;11.516;2023-03-01T16:50:42;23.70;;;0.73;;
3817;SDS011;1924;48.078;11.516;2023-03-01T16:53:09;23.80;;;0.70;;
3817;SDS011;1924;48.078;11.516;2023-03-01T16:55:36;23.80;;;0.80;;
3817;SDS011;1924;48.078;11.516;2023-03-01T16:58:10;23.80;;;0.80;;
3817;SDS011;1924;48.078;11.516;2023-03-01T17:00:36;23.90;;;0.80;;
3817;SDS011;1924;48.078;11.516;2023-03-01T17:03:03;23.70;;;0.77;;
3817;SDS011;1924;48.078;11.516;2023-03-01T17:05:31;23.80;;;0.80;;
3817;SDS011;1924;48.078;11.516;2023-03-01T17:07:58;23.90;;;0.80;;
3817;SDS011;1924;48.078;11.516;2023-03-01T17:10:24;23.80;;;0.80;;
3817;SDS011;1924;48.078;11.516;2023-03-01T17:12:51;23.80;;;0.80;;
3817;SDS011;1924;48.078;11.516;2023-03-01T17:15:18;23.70;;;0.80;;
3817;SDS011;1924;48.078;11.516;2023-03-01T17:17:45;23.60;;;0.73;;
3817;SDS011;1924;48.078;11.516;2023-03-01T17:20:15;23.67;;;0.80;;
3817;SDS011;1924;48.078;11.516;2023-03-01T17:22:43;23.70;;;0.80;;
3817;SDS011;1924;48.078;11.516;2023-03-01T17:25:11;23.53;;;0.70;;